createdAt,value
2019-03-16T00:01:34.998Z,3.23
2019-03-16T00:12:34.236Z,3.23
2019-03-16T00:23:35.229Z,3.22
2019-03-16T00:34:39.202Z,3.22
2019-03-16T00:45:39.585Z,3.22
2019-03-16T00:56:38.978Z,3.21
2019-03-16T01:07:42.640Z,3.21
2019-03-16T01:18:39.309Z,3.21
2019-03-16T01:29:41.517Z,3.21
2019-03-16T01:40:45.050Z,3.20
2019-03-16T01:51:42.478Z,3.20
2019-03-16T02:02:55.172Z,3.20
2019-03-16T02:13:53.625Z,3.19
2019-03-16T02:24:55.582Z,3.19
2019-03-16T02:36:00.168Z,3.19
2019-03-16T02:46:57.538Z,3.19
2019-03-16T02:57:58.559Z,3.19
2019-03-16T03:09:00.645Z,3.19
2019-03-16T03:20:03.769Z,3.19
2019-03-16T03:31:06.647Z,3.18
2019-03-16T03:42:03.592Z,3.19
2019-03-16T03:53:03.873Z,3.18
2019-03-16T04:04:15.750Z,3.18
2019-03-16T04:15:14.161Z,3.18
2019-03-16T04:26:15.145Z,3.18
2019-03-16T04:37:17.144Z,3.18
2019-03-16T04:48:10.721Z,3.17
2019-03-16T04:59:10.403Z,3.17
2019-03-16T05:10:14.237Z,3.17
2019-03-16T05:21:15.709Z,3.17
2019-03-16T05:32:17.923Z,3.17
2019-03-16T05:43:16.255Z,3.18
2019-03-16T05:54:15.990Z,3.18
2019-03-16T06:05:19.301Z,3.19
2019-03-16T06:16:14.585Z,3.19
2019-03-16T06:27:18.575Z,3.21
2019-03-16T06:38:13.822Z,3.22
2019-03-16T06:49:07.881Z,3.24
2019-03-16T07:00:08.808Z,3.25
2019-03-16T07:11:10.467Z,3.25
2019-03-16T07:22:11.681Z,3.25
2019-03-16T07:33:13.934Z,3.28
2019-03-16T07:44:11.885Z,3.29
2019-03-16T07:55:09.092Z,3.30
2019-03-16T08:06:12.817Z,3.30
2019-03-16T08:17:09.833Z,3.33
2019-03-16T08:28:03.205Z,3.34
2019-03-16T08:39:02.876Z,3.36
2019-03-16T08:49:59.356Z,3.38
2019-03-16T09:00:59.431Z,3.39
2019-03-16T09:11:59.190Z,3.40
2019-03-16T09:22:56.465Z,3.43
2019-03-16T09:33:52.791Z,3.39
2019-03-16T09:44:52.367Z,3.39
2019-03-16T09:55:50.837Z,3.39
2019-03-16T10:06:50.641Z,3.39
2019-03-16T10:17:47.731Z,3.39
2019-03-16T10:28:47.791Z,3.39
2019-03-16T10:39:48.993Z,3.38
2019-03-16T10:50:50.299Z,3.39
2019-03-16T11:01:53.422Z,3.39
2019-03-16T11:12:53.513Z,3.39
2019-03-16T11:23:52.687Z,3.39
2019-03-16T11:34:54.503Z,3.39
2019-03-16T11:45:55.927Z,3.39
2019-03-16T11:57:00.866Z,3.39
2019-03-16T12:08:01.874Z,3.40
2019-03-16T12:19:12.821Z,3.39
2019-03-16T12:30:16.886Z,3.39
2019-03-16T12:41:20.924Z,3.40
2019-03-16T12:52:24.790Z,3.39
2019-03-16T13:03:29.731Z,3.39
2019-03-16T13:14:39.527Z,3.40
2019-03-16T13:25:37.178Z,3.39
2019-03-16T13:36:39.617Z,3.39
2019-03-16T13:47:40.771Z,3.39
2019-03-16T13:58:52.123Z,3.39
2019-03-16T14:09:51.139Z,3.39
2019-03-16T14:20:59.278Z,3.40
2019-03-16T14:31:59.976Z,3.39
2019-03-16T14:42:52.796Z,3.39
2019-03-16T14:53:50.985Z,3.39
2019-03-16T15:04:53.987Z,3.39
2019-03-16T15:15:59.006Z,3.40
2019-03-16T15:26:59.391Z,3.40
2019-03-16T15:38:04.033Z,3.40
2019-03-16T15:49:04.439Z,3.40
2019-03-16T16:00:05.049Z,3.39
2019-03-16T16:11:12.452Z,3.40
2019-03-16T16:22:02.700Z,3.40
2019-03-16T16:33:03.676Z,3.40
2019-03-16T16:44:01.475Z,3.39
2019-03-16T16:55:03.462Z,3.38
2019-03-16T17:05:59.133Z,3.37
2019-03-16T17:17:03.673Z,3.33
2019-03-16T17:28:04.592Z,3.35
2019-03-16T17:39:01.885Z,3.34
2019-03-16T17:49:58.589Z,3.34
2019-03-16T18:01:01.164Z,3.34
2019-03-16T18:12:01.716Z,3.34
2019-03-16T18:23:02.330Z,3.33
2019-03-16T18:33:59.437Z,3.33
2019-03-16T18:44:57.872Z,3.32
2019-03-16T18:55:51.660Z,3.32
2019-03-16T19:06:47.130Z,3.31
2019-03-16T19:17:41.121Z,3.30
2019-03-16T19:28:38.811Z,3.30
2019-03-16T19:39:35.711Z,3.30
2019-03-16T19:50:29.644Z,3.29
2019-03-16T20:01:15.281Z,3.29
2019-03-16T20:12:05.676Z,3.28
2019-03-16T20:23:04.068Z,3.25
2019-03-16T20:33:39.050Z,3.27
2019-03-16T20:44:36.902Z,3.27
2019-03-16T20:55:15.304Z,3.26
2019-03-16T21:06:06.039Z,3.26
2019-03-16T21:16:56.903Z,3.25
2019-03-16T21:27:51.418Z,3.25
2019-03-16T21:38:48.974Z,3.25
2019-03-16T21:49:36.517Z,3.25
2019-03-16T22:00:32.497Z,3.24
2019-03-16T22:11:27.869Z,3.24
2019-03-16T22:22:22.291Z,3.24
2019-03-16T22:33:19.964Z,3.23
2019-03-16T22:44:14.225Z,3.23
2019-03-16T22:55:10.971Z,3.23
2019-03-16T23:06:05.671Z,3.23
2019-03-16T23:17:02.623Z,3.22
2019-03-16T23:28:05.024Z,3.22
2019-03-16T23:39:04.442Z,3.22
2019-03-16T23:49:59.369Z,3.21
